Latest Coastal Weather Observations for Walpole North

IDW60701

Issued at 12:43 am WST Thursday 27 July 2017 (issued every 10 minutes, with the page automatically refreshed every 10 minutes)

About coastal observations | Map of coastal stations | Coastal observations for WA | Marine services | Other Formats
Station Details ID: 009998 Name: NORTH WALPOLE Lat: -34.95 Lon: 116.72 Height: 73.0 m
Data from the previous 72 hours. | See also: Recent months at Walpole North
Date/Time
WST
Temp
°C
Wind Pressure Rain since
9am
mm
Weather Cloud Vis
km
Sea
Height
m
Swell
Dir  Spd
kts
Gust
kts
hPa Trend Height
m
Period
s
Dir
27/12:30am 9.1 CALM 0 0 1017.7 - 14.8 - - - - - - -
27/12:00am 10.0 NW 4 5 1018.0 - 14.8 - - - - - - -
 
Date/Time
WST
Temp
°C
Wind Pressure Rain since
9am
mm
Weather Cloud Vis
km
Sea
Height
m
Swell
Dir  Spd
kts
Gust
kts
hPa Trend Height
m
Period
s
Dir
26/11:30pm 10.5 NW 4 6 1018.1 - 14.8 - - - - - - -
26/11:00pm 10.4 NW 5 7 1018.2 - 14.8 - - - - - - -
26/10:30pm 10.4 NW 6 7 1018.5 - 14.8 - - - - - - -
26/10:00pm 10.6 NNW 6 8 1018.4 - 14.8 - - - - - - -
26/09:30pm 11.1 NNW 6 8 1018.2 - 14.8 - - - - - - -
26/09:00pm 11.6 WNW 7 8 1018.0 - 14.8 - - - - - - -
26/08:30pm 11.7 WNW 6 8 1017.9 - 14.8 - - - - - - -
26/08:00pm 11.9 NW 9 11 1017.9 - 14.8 - - - - - - -
26/07:30pm 11.9 NW 8 11 1017.6 - 14.8 - - - - - - -
26/07:00pm 12.3 WNW 8 11 1017.3 - 14.8 - - - - - - -
26/06:30pm 12.4 WNW 10 13 1016.9 - 14.8 - - - - - - -
26/06:00pm 12.5 WNW 9 11 1016.3 - 14.8 - - - - - - -
26/05:30pm 12.7 WNW 8 13 1015.9 - 14.8 - - - - - - -
26/05:00pm 13.6 W 10 17 1015.6 - 14.8 - - - - - - -
26/04:30pm 14.4 WNW 11 21 1015.1 - 14.8 - - - - - - -
26/04:00pm 14.3 W 11 17 1014.7 - 14.6 - - - - - - -
26/03:30pm 14.5 W 12 18 1014.1 - 14.2 - - - - - - -
26/03:00pm 15.0 W 13 21 1013.6 - 13.6 Rain - - - - - -
26/02:30pm 15.2 W 15 26 1013.6 - 12.8 - - - - - - -
26/02:26pm 15.3 WNW 15 26 1013.5 - 12.8 - - - - - - -
26/02:00pm 15.3 W 13 26 1013.2 - 12.0 - - - - - - -
26/01:30pm 15.6 W 11 23 1013.0 - 11.2 - - - - - - -
26/01:00pm 14.3 W 11 19 1012.9 - 10.4 - - - - - - -
26/12:30pm 13.4 WNW 8 13 1012.8 - 9.4 - - - - - - -
26/12:00pm 12.9 WNW 7 14 1012.8 - 8.2 Rain - - - - - -
26/11:30am 12.5 W 11 21 1013.0 - 7.0 - - - - - - -
26/11:09am 12.8 WSW 15 25 1013.0 - 6.2 - - - - - - -
26/11:00am 13.0 WSW 16 25 1012.7 - 5.8 - - - - - - -
26/10:56am 13.2 WSW 15 25 1012.6 - 5.6 - - - - - - -
26/10:30am 15.0 WNW 11 15 1011.9 - 4.4 - - - - - - -
26/10:00am 14.0 WNW 10 14 1011.8 - 3.0 - - - - - - -
26/09:30am 13.6 WNW 11 15 1011.6 - 1.6 - - - - - - -
26/09:00am 13.5 NW 13 17 1011.5 - 7.4 Rain - - - - - -
26/08:30am 13.5 NW 15 20 1011.1 - 6.0 - - - - - - -
26/08:00am 13.3 WNW 6 11 1011.1 - 4.4 - - - - - - -
26/07:30am 13.3 NW 11 15 1011.0 - 3.0 - - - - - - -
26/07:00am 13.1 NW 9 13 1010.8 - 1.8 - - - - - - -
26/06:30am 12.6 NW 12 19 1010.7 - 1.0 - - - - - - -
26/06:00am 13.3 WNW 9 13 1011.0 - 0.4 Rain - - - - - -
26/05:30am 14.1 WNW 9 14 1010.6 - 0.0 - - - - - - -
26/05:00am 14.4 NW 11 17 1010.2 - 0.0 - - - - - - -
26/04:30am 14.4 NNW 10 15 1010.4 - 0.0 - - - - - - -
26/04:00am 14.4 NNW 9 14 1010.6 - 0.0 - - - - - - -
26/03:30am 14.4 NNW 10 17 1010.8 - 0.0 - - - - - - -
26/03:00am 14.1 N 9 15 1010.4 - 0.0 - - - - - - -
26/02:30am 14.2 NNW 9 14 1011.2 - 0.0 - - - - - - -
26/02:00am 14.1 NNW 9 13 1011.5 - 0.0 - - - - - - -
26/01:30am 14.5 NNW 9 16 1011.8 - 0.0 - - - - - - -
26/01:00am 14.6 NNW 10 17 1012.1 - 0.0 - - - - - - -
26/12:30am 14.6 NNW 9 14 1012.3 - 0.0 - - - - - - -
26/12:00am 14.6 NNW 9 14 1012.7 - 0.0 - - - - - - -
 
Date/Time
WST
Temp
°C
Wind Pressure Rain since
9am
mm
Weather Cloud Vis
km
Sea
Height
m
Swell
Dir  Spd
kts
Gust
kts
hPa Trend Height
m
Period
s
Dir
25/11:30pm 14.5 NNW 9 15 1012.7 - 0.0 - - - - - - -
25/11:00pm 14.6 NNW 9 15 1013.1 - 0.0 - - - - - - -
25/10:30pm 14.8 NW 11 19 1013.6 - 0.0 - - - - - - -
25/10:00pm 14.8 NW 11 17 1013.5 - 0.0 - - - - - - -
25/09:30pm 14.8 NW 10 16 1013.8 - 0.0 - - - - - - -
25/09:00pm 14.8 NW 11 17 1014.1 - 0.0 - - - - - - -
25/08:30pm 14.8 NNW 10 17 1013.9 - 0.0 - - - - - - -
25/08:00pm 15.1 NW 11 16 1014.0 - 0.0 - - - - - - -
25/07:30pm 14.9 NNW 12 19 1013.9 - 0.0 - - - - - - -
25/07:00pm 14.8 NNW 9 17 1013.8 - 0.0 - - - - - - -
25/06:30pm 15.1 NNW 9 19 1013.6 - 0.0 - - - - - - -
25/06:00pm 15.1 NNW 8 15 1013.9 - 0.0 - - - - - - -
25/05:30pm 15.5 NNW 8 16 1014.2 - 0.0 - - - - - - -
25/05:00pm 15.6 N 6 11 1014.3 - 0.0 - - - - - - -
25/04:30pm 15.8 N 7 12 1014.4 - 0.0 - - - - - - -
25/04:00pm 15.8 NNW 6 11 1014.7 - 0.0 - - - - - - -
25/03:30pm 16.5 NNW 9 15 1014.8 - 0.0 - - - - - - -
25/03:00pm 16.8 NW 7 11 1015.0 - 0.0 - - - - - - -
25/02:30pm 16.3 NNW 9 13 1015.3 - 0.0 - - - - - - -
25/02:00pm 17.1 NW 11 16 1015.4 - 0.0 - - - - - - -
25/01:30pm 16.6 NNW 8 12 1015.7 - 0.0 - - - - - - -
25/01:00pm 16.2 NW 8 11 1016.2 - 0.0 - - - - - - -
25/12:30pm 15.7 NW 8 13 1016.7 - 0.0 - - - - - - -
25/12:00pm 15.7 NNW 10 16 1017.2 - 0.0 - - - - - - -
25/11:30am 14.7 NNW 9 15 1017.4 - 0.0 - - - - - - -
25/11:00am 14.3 NNW 9 14 1017.9 - 0.0 - - - - - - -
25/10:30am 13.7 NNW 5 8 1018.2 - 0.0 - - - - - - -
25/10:00am 13.3 NNW 5 8 1018.3 - 0.0 - - - - - - -
25/09:30am 12.3 N 5 8 1018.4 - 0.0 - - - - - - -
25/09:00am 11.9 N 5 10 1018.3 - 6.4 - - - - - - -
25/08:30am 11.8 NNW 7 10 1018.1 - 6.4 - - - - - - -
25/08:00am 11.4 NNW 9 13 1018.1 - 6.4 - - - - - - -
25/07:30am 10.8 NNW 5 9 1017.8 - 6.4 - - - - - - -
25/07:00am 10.1 NNW 5 10 1017.4 - 6.4 - - - - - - -
25/06:30am 10.5 NNW 7 10 1017.4 - 6.4 - - - - - - -
25/06:00am 10.4 NW 6 11 1017.4 - 6.4 - - - - - - -
25/05:30am 10.0 NNW 5 7 1017.2 - 6.4 - - - - - - -
25/05:00am 10.6 NNW 7 11 1017.2 - 6.4 - - - - - - -
25/04:30am 9.8 NW 5 7 1017.3 - 6.4 - - - - - - -
25/04:00am 10.2 NNW 7 9 1017.2 - 6.4 - - - - - - -
25/03:30am 9.4 NW 6 10 1017.4 - 6.4 - - - - - - -
25/03:00am 10.0 NNW 6 11 1017.4 - 6.4 Recent precip. - - - - - -
25/02:30am 10.1 NNW 8 11 1017.4 - 6.2 - - - - - - -
25/02:00am 9.8 NW 6 9 1017.4 - 6.2 - - - - - - -
25/01:30am 9.8 NW 5 7 1017.5 - 6.2 - - - - - - -
25/01:00am 10.2 NW 6 7 1017.6 - 6.2 - - - - - - -
25/12:30am 9.8 NW 6 9 1017.5 - 6.2 - - - - - - -
25/12:00am 9.6 NW 6 8 1017.6 - 6.2 Recent precip. - - - - - -
 
Date/Time
WST
Temp
°C
Wind Pressure Rain since
9am
mm
Weather Cloud Vis
km
Sea
Height
m
Swell
Dir  Spd
kts
Gust
kts
hPa Trend Height
m
Period
s
Dir
24/11:30pm 9.9 NW 6 9 1017.7 - 6.2 - - - - - - -
24/11:00pm 10.6 NW 7 11 1017.6 - 6.0 - - - - - - -
24/10:30pm 10.7 NNW 7 10 1017.6 - 5.8 - - - - - - -
24/10:00pm 11.0 NNW 7 10 1017.7 - 5.8 - - - - - - -
24/09:30pm 11.0 NNW 11 15 1017.7 - 5.4 - - - - - - -
24/09:00pm 10.0 N 3 5 1017.7 - 5.2 Rain - - - - - -
24/08:30pm 9.5 N 6 9 1017.4 - 5.0 - - - - - - -
24/08:00pm 9.5 N 5 8 1017.3 - 4.6 - - - - - - -
24/07:30pm 9.9 N 5 7 1017.6 - 4.2 - - - - - - -
24/07:00pm 9.8 NNW 6 9 1017.4 - 4.0 - - - - - - -
24/06:30pm 9.8 NW 3 8 1017.3 - 3.6 - - - - - - -
24/06:00pm 10.5 NNW 6 7 1017.3 - 3.2 Rain - - - - - -
24/05:30pm 10.9 NW 2 4 1017.2 - 2.8 - - - - - - -
24/05:00pm 11.2 NW 3 5 1016.9 - 2.2 - - - - - - -
24/04:30pm 11.6 NW 10 15 1016.6 - 2.0 - - - - - - -
24/04:00pm 13.3 WNW 5 6 1015.9 - 1.8 - - - - - - -
24/03:30pm 13.9 W 5 9 1015.5 - 1.8 - - - - - - -
24/03:00pm 15.0 W 8 11 1015.2 - 1.8 - - - - - - -
24/02:30pm 15.2 WNW 7 12 1015.1 - 1.8 - - - - - - -
24/02:00pm 15.2 WNW 8 13 1015.1 - 1.8 - - - - - - -
24/01:30pm 14.0 WNW 9 15 1015.4 - 1.8 - - - - - - -
24/01:00pm 15.2 WNW 7 11 1015.6 - 1.8 - - - - - - -
24/12:30pm 13.6 W 6 11 1015.9 - 1.8 - - - - - - -
24/12:00pm 13.1 WNW 7 11 1016.1 - 1.6 Recent precip. - - - - - -
24/11:30am 13.4 WNW 10 14 1016.5 - 1.6 - - - - - - -
24/11:00am 12.3 NW 8 11 1016.7 - 1.4 - - - - - - -
24/10:30am 11.8 NW 9 12 1016.9 - 1.0 - - - - - - -
24/10:00am 11.1 WNW 9 12 1017.2 - 0.6 - - - - - - -
24/09:30am 11.1 NW 8 11 1017.0 - 0.4 - - - - - - -
24/09:00am 10.9 NW 10 17 1016.6 - 9.0 Recent precip. - - - - - -
24/08:30am 10.8 NW 10 14 1016.4 - 8.8 - - - - - - -
24/08:00am 10.4 NNW 9 12 1016.1 - 8.8 - - - - - - -
24/07:30am 10.3 NW 10 14 1015.9 - 8.8 - - - - - - -
24/07:00am 10.3 NNW 9 13 1015.5 - 8.8 - - - - - - -
24/06:30am 10.1 NNW 10 14 1015.3 - 8.8 - - - - - - -
24/06:00am 10.1 NW 11 15 1015.0 - 8.8 Recent precip. - - - - - -
24/05:30am 10.2 NNW 11 15 1014.5 - 8.8 - - - - - - -
24/05:00am 10.0 NNW 11 16 1014.4 - 8.6 - - - - - - -
24/04:30am 9.1 NW 4 6 1014.4 - 8.6 - - - - - - -
24/04:00am 9.1 NW 8 11 1014.3 - 8.6 - - - - - - -
24/03:30am 9.5 NW 8 11 1014.3 - 8.6 - - - - - - -
24/03:00am 9.3 NW 7 9 1014.4 - 8.6 - - - - - - -
24/02:30am 9.8 NW 9 11 1014.1 - 8.6 - - - - - - -
24/02:00am 9.8 NW 7 11 1014.2 - 8.6 - - - - - - -
24/01:30am 9.9 NW 8 11 1014.1 - 8.6 - - - - - - -
24/01:00am 10.0 NW 7 10 1014.1 - 8.6 - - - - - - -

Other Formats:

Comma delimited format used in spreadsheet applications
http://www.bom.gov.au/fwo/IDW60701/IDW60701.95647.axf

JavaScript Object Notation format (JSON) in row-major order
http://www.bom.gov.au/fwo/IDW60701/IDW60701.95647.json